Observations for MANCHESTER INTL, United Kingdom (EGCC)

EGCC 242020Z AUTO 29006KT 7000 -RA FEW005 SCT015 BKN025 09/08 Q1006 RERA TEMPO BKN014   
EGCC 241950Z 29007KT 270V330 8000 RA BKN006 BKN012 09/08 Q1005 TEMPO -SHRA SCT006   
EGCC 241920Z AUTO 33006KT 6000 -RA SCT006/// BKN013/// BKN022/// //////TCU 09/08 Q1005 TEMPO BKN006 
EGCC 241850Z AUTO 34008KT 6000 -RA SCT005 BKN011 OVC017 09/08 Q1005 RERA TEMPO 4500 RA BKN009   
EGCC 241820Z 34010KT 4500 RA BKN006 09/09 Q1004 TEMPO 6000 -RA  
EGCC 241750Z 34006KT 3200 RA BKN005 10/09 Q1004 TEMPO 5000 -RA BKN004   
EGCC 241720Z 03004KT 360V070 4600 RA BKN005 10/10 Q1004 TEMPO 5000 -RA BKN004   
EGCC 241650Z 04002KT 4600 RA FEW005 BKN009 10/09 Q1005 TEMPO 6000 -RA BKN010
EGCC 241620Z VRB02KT 8000 -RA FEW008 BKN012 10/09 Q1006 TEMPO RA
EGCC 241550Z VRB02KT 9000 -RA SCT008 BKN019 10/09 Q1006 TEMPO RA BKN008 
EGCC 241520Z VRB02KT 6000 -RA FEW007 BKN020 10/09 Q1007 TEMPO 4500 RA BKN007
EGCC 241450Z VRB03KT 7000 -RA SCT006 BKN031 10/09 Q1008 TEMPO RA
EGCC 241420Z 18004KT 120V220 9000 -RA BKN006 10/09 Q1009 TEMPO RA SCT006
EGCC 241350Z 20005KT 160V230 7000 -RA SCT006 BKN010 OVC041 10/09 Q1010 RERA TEMPO 4000 RA BKN006
EGCC 241320Z AUTO 20004KT 5000 -RA BKN005/// BKN010/// BKN015/// //////TCU 10/09 Q1010 RERA TEMPO 4000 RA   
EGCC 241250Z AUTO 20005KT 170V230 4200 RA SCT010/// SCT014/// BKN023/// //////TCU 11/09 Q1010 TEMPO 6000 -RA BKN010 
EGCC 241220Z AUTO 20006KT 170V230 9999 -RA SCT013 BKN020 OVC043 11/09 Q1011 TEMPO RA BKN012 
EGCC 241150Z AUTO 21008KT 170V240 9999 -RA BKN012/// BKN017/// //////TCU 11/09 Q1011 TEMPO RA SCT014
EGCC 241120Z AUTO 20008KT 9999 -RA BKN012/// BKN017/// OVC049/// //////TCU 11/08 Q1012 TEMPO RA 
EGCC 241050Z AUTO 22004KT 190V260 9999 -RA SCT020/// BKN049/// //////CB 11/08 Q1012 TEMPO RA
EGCC 241020Z 22008KT 9999 -RA FEW024 BKN048 10/08 Q1012 NOSIG   
EGCC 240950Z AUTO 23009KT 9999 -RA NCD 11/07 Q1012 NOSIG
EGCC 240920Z AUTO 22007KT 180V240 9999 NCD 11/07 Q1012 TEMPO RA 
EGCC 240850Z AUTO 23010KT 9999 NCD 11/07 Q1012 NOSIG
EGCC 240820Z AUTO 22006KT 180V240 9999 NCD 11/06 Q1013 NOSIG
EGCC 240750Z AUTO 23010KT 9999 NCD 10/06 Q1013 NOSIG
EGCC 240720Z AUTO 24012KT 9999 FEW034 10/06 Q1013 NOSIG 
EGCC 240650Z AUTO 23007KT 9999 FEW036 09/06 Q1013 NOSIG 
EGCC 240620Z AUTO 23008KT 9999 SCT035 09/05 Q1013 NOSIG 
EGCC 240550Z AUTO 22007KT 170V240 9999 NCD 08/05 Q1012 NOSIG
EGCC 240520Z AUTO 21005KT 9999 NCD 08/05 Q1012 NOSIG
EGCC 240450Z AUTO 19004KT 140V240 9999 NCD 08/05 Q1012 NOSIG
EGCC 240420Z AUTO 21005KT 9999 NCD 08/06 Q1012 NOSIG
EGCC 240350Z AUTO 22006KT 180V240 9999 NCD 07/05 Q1012 NOSIG
EGCC 240320Z AUTO 24005KT 9999 NCD 08/06 Q1012 NOSIG
EGCC 240250Z AUTO 21004KT 9999 NCD 08/06 Q1012 NOSIG
EGCC 240220Z AUTO 25007KT 9999 NCD 09/06 Q1012  
EGCC 240150Z AUTO 25008KT 9999 FEW036 10/06 Q1012 NOSIG 
EGCC 240120Z AUTO 26011KT 9999 NCD 10/06 Q1012 NOSIG
EGCC 240050Z AUTO 26009KT 9999 SCT045 10/07 Q1012 NOSIG 
EGCC 240020Z AUTO 26009KT 9999 SCT047 10/07 Q1012 NOSIG 
EGCC 232350Z AUTO 26009KT 9999 FEW042 11/07 Q1012 NOSIG 
EGCC 232320Z AUTO 27011KT 9999 FEW021 SCT031 BKN040 11/07 Q1012 NOSIG   
EGCC 232250Z AUTO 24010KT 190V260 9999 SCT015 BKN019 BKN026 11/09 Q1012 NOSIG   
EGCC 232220Z AUTO 22009KT 9999 BKN012 OVC020 11/09 Q1012 BECMG SCT012   
EGCC 232150Z AUTO 21008KT 9999 SCT012 BKN017 OVC024 11/09 Q1011 TEMPO BKN012
EGCC 232120Z AUTO 21008KT 150V240 9999 SCT012 SCT024 BKN030 11/09 Q1011 NOSIG   
EGCC 232050Z AUTO 20009KT 9999 SCT015 BKN028 BKN049 11/09 Q1011 NOSIG   
EGCC 232020Z AUTO 21009KT 170V240 9999 SCT013 BKN031 11/09 Q1011 NOSIG  
EGCC 231950Z AUTO 21010KT 170V240 9999 OVC012 11/09 Q1011 BECMG SCT012